Wetterdaten: Woche 13.10.03 - 19.10.03 (KW42)
Datum Zeit Temperatur Luftfeuchte Luftdruck Regenmenge Wind Richtung Taupunkt Windchill
13.10.2003 00:00 9.6 C 83 % 1023.3 hPa 0.0 l/m 0.0 km/h (0 Bft) N 6.8 C 9.6 C
13.10.2003 01:00 9.6 C 80 % 1023.3 hPa 0.0 l/m 0.7 km/h (0 Bft) NW 6.3 C 9.5 C
13.10.2003 02:00 9.5 C 78 % 1023.3 hPa 0.0 l/m 0.1 km/h (0 Bft) N 5.9 C 9.5 C
13.10.2003 03:00 9.2 C 81 % 1023.3 hPa 0.0 l/m 0.0 km/h (0 Bft) N 6.1 C 9.2 C
13.10.2003 04:00 8.8 C 84 % 1022.3 hPa 0.0 l/m 0.2 km/h (0 Bft) O-SO 6.2 C 8.8 C
13.10.2003 05:00 9.0 C 85 % 1022.2 hPa 0.0 l/m 1.4 km/h (1 Bft) O-SO 6.6 C 8.9 C
13.10.2003 06:00 9.0 C 85 % 1022.2 hPa 0.0 l/m 0.0 km/h (0 Bft) N 6.7 C 9.0 C
13.10.2003 07:00 8.9 C 86 % 1022.4 hPa 0.0 l/m 0.3 km/h (0 Bft) O-SO 6.8 C 8.9 C
13.10.2003 08:00 9.0 C 85 % 1023.3 hPa 0.0 l/m 0.0 km/h (0 Bft) N 6.5 C 9.0 C
13.10.2003 09:00 9.4 C 83 % 1023.3 hPa 0.0 l/m 0.1 km/h (0 Bft) N 6.6 C 9.4 C
13.10.2003 10:00 10.1 C 79 % 1023.3 hPa 0.0 l/m 0.0 km/h (0 Bft) N 6.7 C 10.1 C
13.10.2003 11:00 10.9 C 77 % 1023.3 hPa 0.0 l/m 0.3 km/h (0 Bft) O 6.9 C 10.9 C
13.10.2003 12:00 12.5 C 72 % 1022.4 hPa 0.0 l/m 0.8 km/h (0 Bft) O-NO 7.5 C 12.5 C
13.10.2003 13:00 14.3 C 66 % 1022.2 hPa 0.0 l/m 1.1 km/h (0 Bft) O-NO 8.0 C 14.3 C
13.10.2003 14:00 15.4 C 59 % 1021.3 hPa 0.0 l/m 5.2 km/h (1 Bft) O-SO 7.4 C 15.4 C
13.10.2003 15:00 15.7 C 58 % 1021.2 hPa 0.0 l/m 7.1 km/h (2 Bft) O-SO 7.6 C 15.7 C
13.10.2003 16:00 15.4 C 61 % 1020.4 hPa 0.0 l/m 14.8 km/h (3 Bft) O-SO 7.8 C 15.4 C
13.10.2003 17:00 14.5 C 64 % 1020.3 hPa 0.0 l/m 11.7 km/h (2 Bft) O-SO 7.7 C 14.5 C
13.10.2003 18:00 12.7 C 71 % 1021.1 hPa 0.0 l/m 0.6 km/h (0 Bft) O 7.5 C 12.7 C
13.10.2003 19:00 11.2 C 75 % 1021.2 hPa 0.0 l/m 1.8 km/h (1 Bft) O-SO 7.0 C 11.2 C
13.10.2003 20:00 9.7 C 77 % 1021.2 hPa 0.0 l/m 0.1 km/h (0 Bft) N 5.8 C 9.7 C
13.10.2003 21:00 8.7 C 80 % 1022.2 hPa 0.0 l/m 0.0 km/h (0 Bft) N 5.5 C 8.7 C
13.10.2003 22:00 8.3 C 79 % 1022.2 hPa 0.0 l/m 0.0 km/h (0 Bft) N 4.8 C 8.3 C
13.10.2003 23:00 7.3 C 84 % 1022.2 hPa 0.0 l/m 1.6 km/h (1 Bft) O 4.7 C 7.1 C
14.10.2003 00:00 6.6 C 87 % 1022.2 hPa 0.0 l/m 0.0 km/h (0 Bft) N 4.5 C 6.6 C
14.10.2003 01:00 6.2 C 88 % 1022.2 hPa 0.0 l/m 0.1 km/h (0 Bft) O 4.4 C 6.2 C
14.10.2003 02:00 5.9 C 89 % 1022.2 hPa 0.0 l/m 0.0 km/h (0 Bft) N 4.2 C 5.9 C
14.10.2003 03:00 5.4 C 91 % 1022.2 hPa 0.0 l/m 0.4 km/h (0 Bft) O 4.1 C 5.4 C
14.10.2003 04:00 6.0 C 92 % 1022.2 hPa 0.0 l/m 2.9 km/h (1 Bft) O 4.8 C 5.6 C
14.10.2003 05:00 7.2 C 85 % 1022.2 hPa 0.0 l/m 0.1 km/h (0 Bft) N 4.9 C 7.2 C
14.10.2003 06:00 7.0 C 80 % 1022.2 hPa 0.0 l/m 0.1 km/h (0 Bft) N 3.9 C 7.0 C
14.10.2003 07:00 6.9 C 82 % 1022.2 hPa 0.0 l/m 1.4 km/h (1 Bft) O 4.0 C 6.7 C
14.10.2003 08:00 7.1 C 83 % 1022.8 hPa 0.0 l/m 0.9 km/h (0 Bft) O 4.3 C 7.1 C
14.10.2003 09:00 8.0 C 79 % 1023.3 hPa 0.0 l/m 0.9 km/h (0 Bft) O-SO 4.5 C 7.9 C
14.10.2003 10:00 8.7 C 73 % 1023.3 hPa 0.0 l/m 0.8 km/h (0 Bft) NO 4.2 C 8.7 C
14.10.2003 11:00 10.1 C 69 % 1023.3 hPa 0.0 l/m 5.9 km/h (2 Bft) O 4.7 C 9.9 C
14.10.2003 12:00 11.3 C 65 % 1023.3 hPa 0.0 l/m 11.0 km/h (2 Bft) O 4.9 C 11.3 C
14.10.2003 13:00 12.0 C 61 % 1023.3 hPa 0.0 l/m 16.4 km/h (3 Bft) O-SO 4.8 C 12.0 C
14.10.2003 14:00 12.4 C 60 % 1023.3 hPa 0.0 l/m 15.9 km/h (3 Bft) O-SO 4.9 C 12.4 C
14.10.2003 15:00 12.0 C 60 % 1023.3 hPa 0.0 l/m 8.7 km/h (2 Bft) O-SO 4.6 C 12.0 C
14.10.2003 16:00 12.3 C 53 % 1023.3 hPa 0.0 l/m 10.6 km/h (2 Bft) O 2.9 C 12.3 C
14.10.2003 17:00 12.3 C 49 % 1023.3 hPa 0.0 l/m 9.4 km/h (2 Bft) O-SO 1.8 C 12.3 C
14.10.2003 18:00 10.6 C 49 % 1023.6 hPa 0.0 l/m 2.7 km/h (1 Bft) NO 0.4 C 10.4 C
14.10.2003 19:00 8.8 C 56 % 1024.3 hPa 0.0 l/m 2.1 km/h (1 Bft) NO 0.7 C 8.6 C
14.10.2003 20:00 7.5 C 59 % 1024.3 hPa 0.0 l/m 2.9 km/h (1 Bft) O 0.1 C 7.1 C
14.10.2003 21:00 7.3 C 60 % 1025.3 hPa 0.0 l/m 2.4 km/h (1 Bft) O-NO -0.0 C 7.0 C
14.10.2003 22:00 6.8 C 60 % 1025.3 hPa 0.0 l/m 1.7 km/h (1 Bft) NO -0.4 C 6.6 C
14.10.2003 23:00 6.1 C 62 % 1025.3 hPa 0.0 l/m 0.9 km/h (0 Bft) N-NO -0.7 C 6.1 C
15.10.2003 00:00 5.4 C 63 % 1025.3 hPa 0.0 l/m 2.0 km/h (1 Bft) N -1.0 C 5.1 C
15.10.2003 01:00 4.6 C 67 % 1025.3 hPa 0.0 l/m 1.4 km/h (1 Bft) O -0.9 C 4.4 C
15.10.2003 02:00 4.2 C 71 % 1025.3 hPa 0.0 l/m 5.4 km/h (1 Bft) O -0.6 C 3.2 C
15.10.2003 03:00 3.8 C 72 % 1025.3 hPa 0.0 l/m 3.4 km/h (1 Bft) NO -0.8 C 3.1 C
15.10.2003 04:00 3.0 C 74 % 1025.3 hPa 0.0 l/m 4.9 km/h (1 Bft) O -1.1 C 1.9 C
15.10.2003 05:00 1.9 C 80 % 1025.3 hPa 0.0 l/m 4.0 km/h (1 Bft) SO -1.2 C 1.0 C
15.10.2003 06:00 1.6 C 82 % 1025.3 hPa 0.0 l/m 1.5 km/h (1 Bft) NO -1.1 C 1.3 C
15.10.2003 07:00 1.5 C 79 % 1025.3 hPa 0.0 l/m 0.9 km/h (0 Bft) N-NO -1.8 C 1.4 C
15.10.2003 08:00 1.2 C 85 % 1025.4 hPa 0.0 l/m 0.1 km/h (0 Bft) NO -1.1 C 1.2 C
15.10.2003 09:00 3.5 C 75 % 1026.4 hPa 0.0 l/m 7.4 km/h (2 Bft) O-SO -0.4 C 1.8 C
15.10.2003 10:00 5.3 C 68 % 1026.4 hPa 0.0 l/m 11.1 km/h (2 Bft) O -0.2 C 3.2 C
15.10.2003 11:00 7.1 C 64 % 1026.2 hPa 0.0 l/m 20.9 km/h (4 Bft) O-SO 0.7 C 3.7 C
15.10.2003 12:00 9.0 C 56 % 1025.3 hPa 0.0 l/m 15.3 km/h (3 Bft) O-SO 0.8 C 6.8 C
15.10.2003 13:00 10.8 C 48 % 1024.8 hPa 0.0 l/m 17.1 km/h (3 Bft) O 0.2 C 10.8 C
15.10.2003 14:00 12.1 C 41 % 1024.1 hPa 0.0 l/m 11.7 km/h (2 Bft) NO -0.7 C 12.1 C
15.10.2003 15:00 13.1 C 39 % 1023.3 hPa 0.0 l/m 4.8 km/h (1 Bft) N-NO -0.6 C 13.1 C
15.10.2003 16:00 13.3 C 36 % 1023.3 hPa 0.0 l/m 6.6 km/h (2 Bft) S -1.5 C 13.3 C
15.10.2003 17:00 12.3 C 36 % 1023.3 hPa 0.0 l/m 7.5 km/h (2 Bft) O-NO -2.3 C 12.3 C
15.10.2003 18:00 10.6 C 41 % 1023.7 hPa 0.0 l/m 2.2 km/h (1 Bft) NO -2.0 C 10.6 C
15.10.2003 19:00 8.8 C 48 % 1024.3 hPa 0.0 l/m 2.6 km/h (1 Bft) N-NO -1.6 C 8.6 C
15.10.2003 20:00 7.8 C 54 % 1024.7 hPa 0.0 l/m 1.6 km/h (1 Bft) NO -0.8 C 7.7 C
15.10.2003 21:00 6.6 C 60 % 1025.3 hPa 0.0 l/m 4.2 km/h (1 Bft) O-SO -0.6 C 5.8 C
15.10.2003 22:00 6.4 C 62 % 1025.3 hPa 0.0 l/m 4.6 km/h (1 Bft) NO -0.4 C 5.6 C
15.10.2003 23:00 5.8 C 64 % 1025.3 hPa 0.0 l/m 4.8 km/h (1 Bft) O -0.5 C 4.9 C
16.10.2003 00:00 5.4 C 66 % 1025.3 hPa 0.0 l/m 1.5 km/h (1 Bft) NO -0.4 C 5.2 C
16.10.2003 01:00 4.7 C 70 % 1025.3 hPa 0.0 l/m 2.2 km/h (1 Bft) O -0.3 C 4.3 C
16.10.2003 02:00 4.1 C 74 % 1025.3 hPa 0.0 l/m 2.7 km/h (1 Bft) O -0.2 C 3.5 C
16.10.2003 03:00 3.8 C 76 % 1025.3 hPa 0.0 l/m 0.7 km/h (0 Bft) NO -0.1 C 3.7 C
16.10.2003 04:00 2.7 C 80 % 1025.3 hPa 0.0 l/m 0.7 km/h (0 Bft) O-SO -0.4 C 2.5 C
16.10.2003 05:00 1.9 C 85 % 1025.3 hPa 0.0 l/m 0.6 km/h (0 Bft) O -0.4 C 1.8 C
16.10.2003 06:00 1.1 C 87 % 1025.3 hPa 0.0 l/m 0.1 km/h (0 Bft) O-NO -0.8 C 1.1 C
16.10.2003 07:00 1.9 C 88 % 1025.3 hPa 0.0 l/m 1.0 km/h (0 Bft) O-SO 0.1 C 1.7 C
16.10.2003 08:00 3.7 C 79 % 1025.3 hPa 0.0 l/m 6.0 km/h (2 Bft) O 0.3 C 2.3 C
16.10.2003 09:00 4.2 C 74 % 1026.1 hPa 0.0 l/m 11.3 km/h (2 Bft) O 0.0 C 1.7 C
16.10.2003 10:00 4.8 C 74 % 1026.4 hPa 0.0 l/m 14.9 km/h (3 Bft) O-SO 0.5 C 1.6 C
16.10.2003 11:00 5.9 C 70 % 1026.4 hPa 0.0 l/m 22.3 km/h (4 Bft) O-SO 1.0 C 2.0 C
16.10.2003 12:00 7.4 C 65 % 1025.6 hPa 0.0 l/m 27.7 km/h (4 Bft) O-SO 1.1 C 3.4 C
16.10.2003 13:00 9.4 C 54 % 1025.1 hPa 0.0 l/m 11.0 km/h (2 Bft) O 0.6 C 7.8 C
16.10.2003 14:00 11.1 C 47 % 1024.2 hPa 0.0 l/m 15.8 km/h (3 Bft) O-SO 0.3 C 11.1 C
16.10.2003 15:00 12.3 C 39 % 1023.3 hPa 0.0 l/m 20.2 km/h (4 Bft) O-SO -1.3 C 12.3 C
16.10.2003 16:00 12.2 C 38 % 1023.3 hPa 0.0 l/m 17.3 km/h (3 Bft) O -1.7 C 12.2 C
16.10.2003 17:00 11.4 C 41 % 1023.3 hPa 0.0 l/m 10.5 km/h (2 Bft) O -1.5 C 11.4 C
16.10.2003 18:00 9.7 C 46 % 1023.3 hPa 0.0 l/m 4.9 km/h (1 Bft) NO -1.4 C 9.5 C
16.10.2003 19:00 8.0 C 51 % 1023.3 hPa 0.0 l/m 5.8 km/h (2 Bft) O-NO -1.5 C 7.1 C
16.10.2003 20:00 7.0 C 54 % 1023.3 hPa 0.0 l/m 4.0 km/h (1 Bft) NO -1.7 C 6.4 C
16.10.2003 21:00 6.2 C 58 % 1023.3 hPa 0.0 l/m 2.0 km/h (1 Bft) S-SW -1.5 C 5.9 C
16.10.2003 22:00 5.4 C 60 % 1023.3 hPa 0.0 l/m 4.6 km/h (1 Bft) N-NO -1.7 C 4.5 C
16.10.2003 23:00 4.6 C 62 % 1023.3 hPa 0.0 l/m 5.6 km/h (1 Bft) NO -2.0 C 3.5 C
17.10.2003 00:00 3.7 C 65 % 1023.3 hPa 0.0 l/m 3.7 km/h (1 Bft) NO -2.2 C 3.1 C
17.10.2003 01:00 3.2 C 66 % 1023.3 hPa 0.0 l/m 6.2 km/h (2 Bft) O-SO -2.6 C 1.8 C
17.10.2003 02:00 2.9 C 65 % 1023.3 hPa 0.0 l/m 4.0 km/h (1 Bft) O-SO -3.1 C 2.0 C
17.10.2003 03:00 1.9 C 69 % 1023.3 hPa 0.0 l/m 0.2 km/h (0 Bft) O -3.1 C 1.9 C
17.10.2003 04:00 1.4 C 74 % 1023.3 hPa 0.0 l/m 0.5 km/h (0 Bft) NO -2.7 C 1.4 C
17.10.2003 05:00 0.6 C 79 % 1023.3 hPa 0.0 l/m 0.9 km/h (0 Bft) O-SO -2.7 C 0.4 C
17.10.2003 06:00 -0.4 C 85 % 1023.3 hPa 0.0 l/m 3.8 km/h (1 Bft) O-SO -2.7 C -1.6 C
17.10.2003 07:00 -1.3 C 87 % 1023.3 hPa 0.0 l/m 0.6 km/h (0 Bft) O-SO -3.2 C -1.3 C
17.10.2003 08:00 -0.6 C 89 % 1023.3 hPa 0.0 l/m 0.7 km/h (0 Bft) O-SO -2.2 C -0.8 C
17.10.2003 09:00 1.9 C 80 % 1023.3 hPa 0.0 l/m 10.5 km/h (2 Bft) O-SO -1.2 C -1.1 C
17.10.2003 10:00 3.3 C 74 % 1023.3 hPa 0.0 l/m 8.2 km/h (2 Bft) O-SO -1.0 C 1.3 C
17.10.2003 11:00 4.9 C 68 % 1022.8 hPa 0.0 l/m 17.1 km/h (3 Bft) O-SO -0.4 C 1.3 C
17.10.2003 12:00 6.4 C 63 % 1022.2 hPa 0.0 l/m 16.5 km/h (3 Bft) O-SO 0.0 C 3.4 C
17.10.2003 13:00 8.0 C 58 % 1021.5 hPa 0.0 l/m 15.9 km/h (3 Bft) O-SO 0.3 C 5.4 C
17.10.2003 14:00 9.0 C 54 % 1021.0 hPa 0.0 l/m 16.6 km/h (3 Bft) O-SO 0.3 C 6.6 C
17.10.2003 15:00 9.8 C 51 % 1020.1 hPa 0.0 l/m 15.4 km/h (3 Bft) O-SO 0.3 C 7.7 C
17.10.2003 16:00 10.1 C 53 % 1019.8 hPa 0.0 l/m 17.3 km/h (3 Bft) O-SO 0.8 C 9.2 C
17.10.2003 17:00 9.4 C 56 % 1019.1 hPa 0.0 l/m 13.9 km/h (3 Bft) O-SO 1.0 C 7.3 C
17.10.2003 18:00 6.9 C 68 % 1019.1 hPa 0.0 l/m 7.9 km/h (2 Bft) O-SO 1.4 C 5.6 C
17.10.2003 19:00 5.1 C 77 % 1019.5 hPa 0.0 l/m 3.4 km/h (1 Bft) O-SO 1.3 C 4.5 C
17.10.2003 20:00 3.7 C 80 % 1019.2 hPa 0.0 l/m 2.8 km/h (1 Bft) O-SO 0.5 C 3.1 C
17.10.2003 21:00 3.8 C 73 % 1019.1 hPa 0.0 l/m 0.1 km/h (0 Bft) W-NW -0.5 C 3.8 C
17.10.2003 22:00 4.4 C 63 % 1019.1 hPa 0.0 l/m 0.9 km/h (0 Bft) N -2.1 C 4.4 C
17.10.2003 23:00 3.4 C 67 % 1019.1 hPa 0.0 l/m 0.0 km/h (0 Bft) N -2.1 C 3.4 C
18.10.2003 00:00 2.3 C 73 % 1018.1 hPa 0.0 l/m 0.0 km/h (0 Bft) N -2.1 C 2.3 C
18.10.2003 01:00 1.3 C 76 % 1018.1 hPa 0.0 l/m 0.0 km/h (0 Bft) N -2.4 C 1.3 C
18.10.2003 02:00 1.1 C 76 % 1017.3 hPa 0.0 l/m 1.6 km/h (1 Bft) O -2.7 C 0.8 C
18.10.2003 03:00 -0.1 C 83 % 1017.0 hPa 0.0 l/m 1.6 km/h (1 Bft) O -2.6 C -0.5 C
18.10.2003 04:00 -0.7 C 84 % 1016.5 hPa 0.0 l/m 1.3 km/h (1 Bft) O -3.0 C -0.9 C
18.10.2003 05:00 -1.0 C 85 % 1016.0 hPa 0.0 l/m 1.6 km/h (1 Bft) O-SO -3.2 C -1.5 C
18.10.2003 06:00 -1.4 C 88 % 1016.0 hPa 0.0 l/m 4.8 km/h (1 Bft) O-SO -3.2 C -2.6 C
18.10.2003 07:00 -1.9 C 89 % 1015.3 hPa 0.0 l/m 5.1 km/h (1 Bft) O-SO -3.5 C -3.6 C
18.10.2003 08:00 -1.0 C 91 % 1014.9 hPa 0.0 l/m 5.4 km/h (1 Bft) O-SO -2.2 C -2.7 C
18.10.2003 09:00 0.8 C 87 % 1014.9 hPa 0.0 l/m 1.2 km/h (1 Bft) O-SO -1.2 C 0.5 C
18.10.2003 10:00 2.4 C 79 % 1014.9 hPa 0.0 l/m 11.8 km/h (2 Bft) O-SO -0.8 C -0.6 C
18.10.2003 11:00 2.8 C 79 % 1014.9 hPa 0.0 l/m 17.6 km/h (3 Bft) O-SO -0.6 C -1.3 C
18.10.2003 12:00 3.8 C 76 % 1014.1 hPa 0.0 l/m 20.3 km/h (4 Bft) O-SO 0.0 C -0.4 C
18.10.2003 13:00 4.8 C 69 % 1013.3 hPa 0.0 l/m 15.9 km/h (3 Bft) O-SO -0.5 C 1.5 C
18.10.2003 14:00 5.7 C 65 % 1012.8 hPa 0.0 l/m 13.6 km/h (3 Bft) SO -0.4 C 2.9 C
18.10.2003 15:00 6.0 C 64 % 1011.9 hPa 0.0 l/m 12.0 km/h (2 Bft) O-SO -0.3 C 3.5 C
18.10.2003 16:00 5.9 C 66 % 1011.8 hPa 0.0 l/m 7.4 km/h (2 Bft) O-SO -0.0 C 4.4 C
18.10.2003 17:00 5.4 C 69 % 1011.8 hPa 0.0 l/m 5.0 km/h (1 Bft) O-SO 0.1 C 4.5 C
18.10.2003 18:00 3.3 C 78 % 1011.8 hPa 0.0 l/m 3.5 km/h (1 Bft) O-SO -0.2 C 2.5 C
18.10.2003 19:00 1.4 C 85 % 1012.2 hPa 0.0 l/m 3.4 km/h (1 Bft) O-SO -0.9 C 0.6 C
18.10.2003 20:00 0.2 C 88 % 1012.8 hPa 0.0 l/m 1.1 km/h (1 Bft) O-SO -1.5 C -0.2 C
18.10.2003 21:00 -0.1 C 91 % 1012.4 hPa 0.0 l/m 2.3 km/h (1 Bft) O-SO -1.3 C -0.5 C
18.10.2003 22:00 -0.4 C 93 % 1012.7 hPa 0.0 l/m 4.3 km/h (1 Bft) O-SO -1.4 C -1.4 C
18.10.2003 23:00 -0.4 C 94 % 1012.6 hPa 0.0 l/m 2.7 km/h (1 Bft) O-SO -1.2 C -0.9 C
19.10.2003 00:00 -0.7 C 94 % 1011.8 hPa 0.0 l/m 5.2 km/h (1 Bft) O-SO -1.5 C -2.3 C
19.10.2003 01:00 -0.5 C 95 % 1011.8 hPa 0.0 l/m 4.8 km/h (1 Bft) O-SO -1.2 C -2.1 C
19.10.2003 02:00 -0.4 C 95 % 1011.8 hPa 0.0 l/m 0.0 km/h (0 Bft) N -1.1 C -0.4 C
19.10.2003 03:00 1.0 C 95 % 1011.8 hPa 0.0 l/m 1.4 km/h (1 Bft) O-SO 0.3 C 0.6 C
19.10.2003 04:00 1.7 C 96 % 1010.8 hPa 0.0 l/m 0.1 km/h (0 Bft) N 1.2 C 1.7 C
19.10.2003 05:00 2.2 C 95 % 1010.8 hPa 0.0 l/m 0.1 km/h (0 Bft) N 1.5 C 2.2 C
19.10.2003 06:00 2.3 C 95 % 1010.8 hPa 0.0 l/m 0.5 km/h (0 Bft) W-SW 1.6 C 2.2 C
19.10.2003 07:00 2.3 C 95 % 1010.8 hPa 0.0 l/m 3.3 km/h (1 Bft) O-SO 1.5 C 1.5 C
19.10.2003 08:00 2.2 C 96 % 1010.8 hPa 0.0 l/m 2.3 km/h (1 Bft) O-SO 1.6 C 1.6 C
19.10.2003 09:00 2.6 C 96 % 1010.8 hPa 0.0 l/m 3.1 km/h (1 Bft) O-SO 2.0 C 1.9 C
19.10.2003 10:00 3.1 C 95 % 1010.8 hPa 0.0 l/m 1.3 km/h (1 Bft) O-SO 2.4 C 2.9 C
19.10.2003 11:00 3.6 C 92 % 1010.7 hPa 0.0 l/m 0.9 km/h (0 Bft) W 2.4 C 3.5 C
19.10.2003 12:00 4.3 C 87 % 1009.7 hPa 0.0 l/m 1.3 km/h (1 Bft) W 2.2 C 4.1 C
19.10.2003 13:00 4.9 C 84 % 1008.7 hPa 0.0 l/m 0.4 km/h (0 Bft) W 2.4 C 4.8 C
19.10.2003 14:00 5.9 C 80 % 1008.2 hPa 0.0 l/m 1.3 km/h (1 Bft) W-SW 2.7 C 5.7 C
19.10.2003 15:00 7.7 C 69 % 1007.5 hPa 0.0 l/m 0.8 km/h (0 Bft) O-SO 2.5 C 7.7 C
19.10.2003 16:00 7.7 C 69 % 1006.6 hPa 0.0 l/m 0.5 km/h (0 Bft) NW 2.4 C 7.7 C
19.10.2003 17:00 6.5 C 76 % 1006.5 hPa 0.0 l/m 0.6 km/h (0 Bft) NW 2.5 C 6.4 C
19.10.2003 18:00 4.9 C 82 % 1005.6 hPa 0.0 l/m 0.0 km/h (0 Bft) N 2.0 C 4.9 C
19.10.2003 19:00 4.0 C 87 % 1005.6 hPa 0.0 l/m 0.0 km/h (0 Bft) N 2.0 C 4.0 C
19.10.2003 20:00 3.9 C 89 % 1005.6 hPa 0.0 l/m 0.0 km/h (0 Bft) N 2.3 C 3.9 C
19.10.2003 21:00 4.0 C 91 % 1005.2 hPa 0.0 l/m 0.0 km/h (0 Bft) N 2.6 C 4.0 C
19.10.2003 22:00 4.0 C 92 % 1004.5 hPa 0.0 l/m 0.0 km/h (0 Bft) N 2.8 C 4.0 C
19.10.2003 23:00 4.4 C 92 % 1003.8 hPa 0.0 l/m 0.1 km/h (0 Bft) N 3.2 C 4.4 C
Min-Datum _ 18.10.03 15.10.03 19.10.03 - 13.10.03 - 18.10.03 18.10.03
_ Min-Zeit 07:04 16:04 23:19 - 00:01 - 05:31 07:37
Minimum _ -2.1 C 35 % 1003.5 hPa - 0.0 km/h (0 Bft) - -4.0 C -6.1 C
Max-Datum _ 13.10.03 19.10.03 15.10.03 13.10.03 16.10.03 - 13.10.03 13.10.03
_ Max-Zeit 14:58 03:52 08:34 00:01 12:09 - 13:55 14:58
Maximum _ 16.0 C 99 % 1026.4 hPa 0.0 l/m 36.7 km/h
O-SO (5 Bft)
- 8.4 C 16.0 C
Durchschnitt _ 5.9 C 73 % 1020.0 hPa #0.0 l/m 4.9 km/h (1 Bft) O-SO 1.1 C 5.3 C

Durchschnitt Minimum Temp.5.2 C
Durchschnitt Maximum Temp.6.6 C
© Kaiko 2003